This is the latest recevied weather packets stored in our database for station/object SP1BMW-13. If no packets are shown the sender has not sent any weather packets the latest 10 day(s).
| Time | Temp. | Humidity | Pressure | Rain* | Wind** | Luminosity | Snow |
|---|---|---|---|---|---|---|---|
| 1788001821 | 24.44° C | 51% | 1009.7 hPa | 0 mm | 1.34 m/s, 246° | 686 W/m² | - |
| 1788001761 | 24.44° C | 49% | 1009.7 hPa | 0 mm | 0.89 m/s, 292° | 689 W/m² | - |
| 1788001701 | 25° C | 49% | 1009.7 hPa | 0 mm | 0.89 m/s, 300° | 724 W/m² | - |
| 1788001641 | 25° C | 48% | 1009.4 hPa | 0 mm | 1.79 m/s, 122° | 181 W/m² | - |
| 1788001581 | 25° C | 49% | 1009.6 hPa | 0 mm | 0.45 m/s, 119° | 210 W/m² | - |
| 1788001521 | 24.44° C | 47% | 1009.8 hPa | 0 mm | 2.68 m/s, 265° | 659 W/m² | - |
| 1788001461 | 24.44° C | 50% | 1009.5 hPa | 0 mm | 1.34 m/s, 186° | 675 W/m² | - |
| 1788001401 | 24.44° C | 52% | 1009.6 hPa | 0 mm | 0.45 m/s, 199° | 652 W/m² | - |
| 1788001341 | 24.44° C | 51% | 1009.8 hPa | 0 mm | 0.89 m/s, 319° | 644 W/m² | - |
| 1788001281 | 24.44° C | 50% | 1009.6 hPa | 0 mm | 0.45 m/s, 301° | 642 W/m² | - |
| 1788001221 | 23.89° C | 49% | 1009.7 hPa | 0 mm | 1.34 m/s, 247° | 636 W/m² | - |
| 1788001161 | 23.89° C | 51% | 1009.6 hPa | 0 mm | 0.89 m/s, 293° | 626 W/m² | - |
| 1788001101 | 23.89° C | 49% | 1009.6 hPa | 0 mm | 0.89 m/s, 128° | 638 W/m² | - |
| 1788001041 | 23.89° C | 50% | 1009.5 hPa | 0 mm | 1.79 m/s, 263° | 642 W/m² | - |
| 1788000981 | 23.89° C | 49% | 1009.8 hPa | 0 mm | 1.79 m/s, 276° | 642 W/m² | - |
| 1788000921 | 23.89° C | 50% | 1009.8 hPa | 0 mm | 2.24 m/s, 298° | 635 W/m² | - |
| 1788000861 | 23.33° C | 54% | 1009.8 hPa | 0 mm | 2.24 m/s, 265° | 637 W/m² | - |
| 1788000801 | 23.33° C | 52% | 1009.7 hPa | 0 mm | 0.89 m/s, 305° | 640 W/m² | - |
| 1788000741 | 23.33° C | 52% | 1009.6 hPa | 0 mm | 1.79 m/s, 346° | 634 W/m² | - |
| 1788000681 | 23.33° C | 52% | 1009.6 hPa | 0 mm | 0.89 m/s, 318° | 648 W/m² | - |
| 1788000621 | 23.33° C | 52% | 1009.8 hPa | 0 mm | 1.34 m/s, 249° | 659 W/m² | - |
| 1788000560 | 23.33° C | 51% | 1009.7 hPa | 0 mm | 1.79 m/s, 240° | 689 W/m² | - |
| 1788000501 | 23.33° C | 52% | 1009.7 hPa | 0 mm | 0.45 m/s, 179° | 412 W/m² | - |
| 1788000441 | 23.33° C | 53% | 1009.9 hPa | 0 mm | 0.45 m/s, 272° | 601 W/m² | - |
| 1788000381 | 23.33° C | 52% | 1009.9 hPa | 0 mm | 0.89 m/s, 221° | 198 W/m² | - |
* Rain latest hour (hover to see other rain measurements)
** Current wind speed in m/s (hover to see current wind gust speed)